Time;durP1;ratioP1;P1;durP2;ratioP2;P2;SDS_P1;SDS_P2;PMS_P1;PMS_P2;Temp;Humidity;BMP_temperature;BMP_pressure;BME280_temperature;BME280_humidity;BME280_pressure;Samples;Min_cycle;Max_cycle;Signal;HPM_P1;HPM_P2
2024/04/17 00:01:04;;;;;;;10.43;1.75;;;4.10;99.90;;;;;;5414024;26;20018;-73
2024/04/17 00:03:30;;;;;;;6.20;1.23;;;4.00;99.90;;;;;;5408042;26;20114;-73
2024/04/17 00:05:55;;;;;;;8.20;1.58;;;3.90;99.90;;;;;;5405975;26;20459;-73
2024/04/17 00:08:21;;;;;;;13.38;1.90;;;3.90;99.90;;;;;;5410806;26;20003;-72
2024/04/17 00:10:48;;;;;;;10.35;1.48;;;3.80;99.90;;;;;;5395718;26;20019;-72
2024/04/17 00:13:14;;;;;;;9.40;1.50;;;3.80;99.90;;;;;;5410810;26;20044;-73
2024/04/17 00:15:39;;;;;;;5.55;1.38;;;3.80;99.90;;;;;;5411960;26;20043;-72
2024/04/17 00:18:05;;;;;;;8.73;1.90;;;3.70;99.90;;;;;;5412756;26;20119;-73
2024/04/17 00:20:31;;;;;;;11.25;1.83;;;3.70;99.90;;;;;;5413614;26;20003;-73
2024/04/17 00:22:57;;;;;;;7.20;1.60;;;3.70;99.90;;;;;;5413289;26;20003;-72
2024/04/17 00:25:22;;;;;;;7.97;1.45;;;3.70;99.90;;;;;;5415912;26;20470;-74
2024/04/17 00:27:50;;;;;;;8.20;1.58;;;3.60;99.90;;;;;;5412290;26;20018;-74
2024/04/17 00:30:16;;;;;;;8.70;1.45;;;3.60;99.90;;;;;;5413791;26;20008;-74
2024/04/17 00:32:42;;;;;;;5.85;1.67;;;3.60;99.90;;;;;;5411530;26;20343;-73
2024/04/17 00:35:08;;;;;;;5.30;1.38;;;3.50;99.90;;;;;;5406270;26;20022;-72
2024/04/17 00:37:34;;;;;;;9.45;1.50;;;3.50;99.90;;;;;;5412258;26;20007;-72
2024/04/17 00:40:00;;;;;;;7.90;1.63;;;3.50;99.90;;;;;;5410831;26;20004;-72
2024/04/17 00:42:25;;;;;;;13.20;2.08;;;3.50;99.90;;;;;;5411349;26;20007;-72
2024/04/17 00:44:51;;;;;;;8.23;1.67;;;3.50;99.90;;;;;;5396889;26;20754;-72
2024/04/17 00:47:17;;;;;;;6.32;1.85;;;3.40;99.90;;;;;;5414664;26;20446;-72
2024/04/17 00:49:43;;;;;;;9.57;1.88;;;3.40;99.90;;;;;;5410994;26;20007;-73
2024/04/17 00:52:10;;;;;;;8.27;1.77;;;3.40;99.90;;;;;;5411982;26;20010;-73
2024/04/17 00:54:36;;;;;;;7.32;2.00;;;3.40;99.90;;;;;;5404964;26;19999;-73
2024/04/17 00:57:03;;;;;;;8.35;1.60;;;3.40;99.90;;;;;;5378965;26;20014;-73
2024/04/17 00:59:29;;;;;;;7.82;2.17;;;3.40;99.90;;;;;;5412120;26;20453;-73
2024/04/17 01:01:56;;;;;;;9.15;1.95;;;3.40;99.90;;;;;;5410952;26;20062;-73
2024/04/17 01:04:22;;;;;;;8.18;1.63;;;3.40;99.90;;;;;;5404818;26;20413;-73
2024/04/17 01:06:47;;;;;;;5.88;1.63;;;3.40;99.90;;;;;;5383869;26;20019;-73
2024/04/17 01:09:13;;;;;;;4.70;1.80;;;3.30;99.90;;;;;;5411661;26;20022;-73
2024/04/17 01:11:41;;;;;;;7.00;1.60;;;3.30;99.90;;;;;;5413472;26;20014;-73
2024/04/17 01:14:08;;;;;;;11.00;1.65;;;3.40;99.90;;;;;;5408591;26;19999;-73
2024/04/17 01:43:30;;;;;;;9.93;1.85;;;3.30;99.90;;;;;;5397042;26;20535;-73
2024/04/17 01:45:56;;;;;;;6.35;1.85;;;3.30;99.90;;;;;;5409390;26;20018;-73
2024/04/17 01:48:22;;;;;;;10.20;1.98;;;3.40;99.90;;;;;;5411151;26;20003;-73
2024/04/17 01:50:48;;;;;;;11.10;3.05;;;3.40;99.90;;;;;;5415177;26;20451;-73
2024/04/17 01:53:14;;;;;;;7.90;1.80;;;3.40;99.90;;;;;;5415299;26;20035;-73
2024/04/17 01:55:40;;;;;;;6.57;2.35;;;3.50;99.90;;;;;;5408219;26;20018;-73
2024/04/17 01:58:06;;;;;;;8.73;1.92;;;3.50;99.90;;;;;;5405676;26;20044;-73
2024/04/17 02:00:35;;;;;;;5.00;1.65;;;3.50;99.90;;;;;;5412937;26;20026;-73
2024/04/17 02:03:01;;;;;;;5.60;1.90;;;3.50;99.90;;;;;;5408082;26;20027;-72
2024/04/17 02:05:26;;;;;;;10.20;1.92;;;3.50;99.90;;;;;;5408151;26;20007;-73
2024/04/17 02:07:52;;;;;;;7.47;1.85;;;3.60;99.90;;;;;;5413509;26;20022;-73
2024/04/17 02:10:18;;;;;;;11.95;1.98;;;3.60;99.90;;;;;;5415004;26;20015;-73
2024/04/17 02:12:45;;;;;;;7.88;2.05;;;3.60;99.90;;;;;;5409753;26;20007;-73
2024/04/17 02:15:10;;;;;;;9.90;2.42;;;3.70;99.90;;;;;;5410947;26;20023;-73
2024/04/17 02:17:36;;;;;;;10.55;1.95;;;3.70;99.90;;;;;;5416914;26;20028;-73
2024/04/17 02:20:05;;;;;;;7.75;1.88;;;3.90;99.90;;;;;;5385095;26;20007;-72
2024/04/17 02:22:31;;;;;;;10.93;1.90;;;3.90;99.90;;;;;;5411073;26;20008;-72
2024/04/17 02:24:57;;;;;;;10.40;2.20;;;3.80;99.90;;;;;;5406315;26;20006;-73
2024/04/17 02:27:22;;;;;;;8.10;2.13;;;4.00;99.90;;;;;;5410983;26;20055;-73
2024/04/17 02:29:51;;;;;;;11.43;1.92;;;4.10;99.90;;;;;;5410827;26;20008;-72
2024/04/17 02:32:17;;;;;;;8.15;1.92;;;4.20;99.90;;;;;;5412398;26;20015;-72
2024/04/17 02:34:43;;;;;;;8.95;2.10;;;4.20;99.90;;;;;;5412885;26;20462;-72
2024/04/17 02:37:09;;;;;;;10.15;1.58;;;4.20;99.90;;;;;;5410733;26;20026;-72
2024/04/17 02:39:35;;;;;;;9.57;1.90;;;4.40;99.90;;;;;;5410298;26;20115;-72
2024/04/17 02:42:01;;;;;;;6.85;1.75;;;4.40;99.90;;;;;;5412346;26;20040;-71
2024/04/17 02:44:27;;;;;;;6.03;1.77;;;4.50;99.90;;;;;;5409508;26;20000;-71
2024/04/17 02:46:53;;;;;;;7.40;1.98;;;4.60;99.90;;;;;;5407040;26;20008;-72
2024/04/17 02:49:19;;;;;;;10.55;1.92;;;4.60;99.90;;;;;;5412616;26;20015;-72
2024/04/17 02:51:45;;;;;;;7.22;1.75;;;4.60;99.90;;;;;;5410766;26;20079;-72
2024/04/17 02:54:11;;;;;;;4.30;1.63;;;4.70;99.90;;;;;;5410649;26;20008;-72
2024/04/17 02:56:38;;;;;;;5.05;1.83;;;4.80;99.90;;;;;;5407676;26;20367;-72
2024/04/17 02:59:04;;;;;;;5.05;1.77;;;4.80;99.90;;;;;;5413109;26;20019;-71
2024/04/17 03:01:31;;;;;;;7.70;2.47;;;4.80;99.90;;;;;;5410155;26;20088;-71
2024/04/17 03:03:57;;;;;;;4.88;1.88;;;4.80;99.90;;;;;;5411205;26;20003;-72
2024/04/17 03:06:23;;;;;;;3.63;1.67;;;4.90;99.90;;;;;;5410318;26;20007;-71
2024/04/17 03:09:10;;;;;;;8.68;2.22;;;4.90;99.90;;;;;;5380395;26;20081;-72
2024/04/17 03:11:36;;;;;;;7.97;1.55;;;4.90;99.90;;;;;;5407191;26;20035;-71
2024/04/17 03:14:21;;;;;;;;;;;4.90;99.90;;;;;;5408053;26;20432;-72
2024/04/17 03:16:47;;;;;;;6.00;1.70;;;4.90;99.90;;;;;;5406130;26;19932;-71
2024/04/17 03:19:13;;;;;;;6.85;2.25;;;4.90;99.90;;;;;;5402540;26;20048;-71
2024/04/17 03:21:41;;;;;;;4.40;2.08;;;4.90;99.90;;;;;;5408882;26;20352;-71
2024/04/17 03:24:07;;;;;;;10.43;2.10;;;4.90;99.90;;;;;;5406979;26;20022;-71
2024/04/17 03:26:32;;;;;;;7.30;1.88;;;4.90;99.90;;;;;;5403915;26;20023;-72
2024/04/17 03:29:03;;;;;;;7.88;1.90;;;4.90;99.90;;;;;;5408449;26;20008;-72
2024/04/17 03:31:43;;;;;;;8.77;2.80;;;4.90;99.90;;;;;;5447114;26;20379;-73
2024/04/17 03:34:10;;;;;;;10.43;2.70;;;5.20;99.90;;;;;;5434481;26;20837;-73
2024/04/17 03:36:36;;;;;;;8.65;2.40;;;5.50;99.90;;;;;;5448190;26;20085;-73
2024/04/17 03:39:02;;;;;;;7.93;1.95;;;5.30;99.90;;;;;;5449578;26;20010;-73
2024/04/17 03:41:28;;;;;;;9.32;1.77;;;5.10;99.90;;;;;;5432947;26;20007;-73
2024/04/17 03:43:54;;;;;;;7.93;2.05;;;5.00;99.90;;;;;;5442534;26;20007;-73
2024/04/17 03:46:23;;;;;;;4.30;1.50;;;5.00;99.90;;;;;;5439942;26;20003;-73
2024/04/17 03:48:49;;;;;;;4.30;1.50;;;5.00;99.90;;;;;;5447206;26;20007;-73
2024/04/17 03:51:15;;;;;;;6.03;1.75;;;5.00;99.90;;;;;;5452288;26;20439;-71
2024/04/17 03:53:41;;;;;;;8.98;1.88;;;5.00;99.90;;;;;;5440971;26;20367;-71
2024/04/17 03:56:26;;;;;;;7.68;1.65;;;4.90;99.90;;;;;;5412770;26;21151;-72
2024/04/17 03:58:52;;;;;;;5.60;1.67;;;4.90;99.90;;;;;;5443766;26;20064;-73
2024/04/17 04:01:18;;;;;;;6.35;1.52;;;5.00;99.90;;;;;;5450564;26;20007;-73
2024/04/17 04:03:44;;;;;;;3.67;1.30;;;5.00;99.90;;;;;;5441127;26;20008;-73
2024/04/17 04:06:30;;;;;;;7.38;1.30;;;5.00;99.90;;;;;;5442369;26;20479;-73
2024/04/17 04:08:55;;;;;;;5.25;1.50;;;5.00;99.90;;;;;;5441677;26;20438;-73
2024/04/17 04:11:22;;;;;;;13.02;3.30;;;5.00;99.90;;;;;;5446643;26;20015;-73
2024/04/17 04:13:50;;;;;;;6.97;1.35;;;5.00;99.90;;;;;;5442568;26;20019;-73
2024/04/17 04:16:15;;;;;;;4.30;1.00;;;5.00;99.90;;;;;;5441578;26;20015;-72
2024/04/17 04:18:41;;;;;;;7.35;1.23;;;5.00;99.90;;;;;;5437989;26;20053;-73
2024/04/17 04:21:07;;;;;;;3.15;1.33;;;5.00;99.90;;;;;;5452808;26;20022;-73
2024/04/17 04:23:33;;;;;;;4.80;0.80;;;5.00;99.90;;;;;;5439494;26;20019;-72
2024/04/17 04:25:58;;;;;;;3.90;0.82;;;5.10;99.90;;;;;;5456961;26;20007;-73
2024/04/17 04:28:47;;;;;;;5.72;0.70;;;5.10;99.90;;;;;;5431000;26;20387;-72
2024/04/17 04:31:13;;;;;;;1.48;0.82;;;5.00;99.90;;;;;;5438870;26;20109;-73
2024/04/17 04:33:39;;;;;;;2.40;0.98;;;5.10;99.90;;;;;;5429933;26;20111;-72
2024/04/17 04:36:06;;;;;;;3.03;1.00;;;5.10;99.90;;;;;;5426903;26;19999;-72
2024/04/17 04:38:32;;;;;;;2.65;0.80;;;5.10;99.90;;;;;;5442884;26;20049;-72
2024/04/17 04:40:59;;;;;;;1.50;0.57;;;5.10;99.90;;;;;;5456512;26;20435;-72
2024/04/17 04:43:24;;;;;;;2.50;0.80;;;5.10;99.90;;;;;;5420940;26;20030;-73
2024/04/17 04:45:50;;;;;;;2.67;0.70;;;5.10;99.90;;;;;;5418865;26;20058;-72
2024/04/17 04:48:16;;;;;;;3.08;0.73;;;5.20;99.90;;;;;;5419998;26;20007;-73
2024/04/17 04:50:43;;;;;;;3.30;0.57;;;5.20;99.90;;;;;;5440727;26;20007;-72
2024/04/17 04:53:09;;;;;;;4.72;0.80;;;5.20;99.90;;;;;;5424968;26;20027;-72
2024/04/17 04:55:35;;;;;;;4.30;0.60;;;5.20;99.90;;;;;;5428028;26;20228;-72
2024/04/17 04:58:01;;;;;;;2.47;0.70;;;5.20;99.90;;;;;;5431955;26;20323;-72
2024/04/17 05:00:26;;;;;;;2.35;0.77;;;5.20;99.90;;;;;;5429049;26;20008;-72
2024/04/17 05:02:52;;;;;;;2.83;0.60;;;5.20;99.90;;;;;;5421176;26;20026;-72
2024/04/17 05:05:18;;;;;;;1.58;0.70;;;5.20;99.90;;;;;;5422225;26;20032;-72
2024/04/17 05:07:44;;;;;;;3.30;0.82;;;5.10;99.90;;;;;;5424535;26;20007;-72
2024/04/17 05:10:09;;;;;;;2.45;0.68;;;5.10;99.90;;;;;;5421230;26;20023;-72
2024/04/17 05:12:35;;;;;;;1.85;0.68;;;5.20;99.90;;;;;;5437781;26;20006;-72
2024/04/17 05:15:01;;;;;;;3.92;0.68;;;5.10;99.90;;;;;;5425370;26;20007;-72
2024/04/17 05:17:27;;;;;;;2.03;0.65;;;5.10;99.90;;;;;;5436167;26;20015;-72
2024/04/17 05:19:53;;;;;;;150.27;116.13;;;5.20;99.90;;;;;;5424310;26;20482;-72
2024/04/17 05:22:19;;;;;;;9.73;4.88;;;5.20;99.90;;;;;;5427368;26;20003;-72
2024/04/17 05:24:45;;;;;;;5.65;1.90;;;5.20;99.90;;;;;;5421796;26;20022;-72
2024/04/17 05:27:10;;;;;;;4.80;0.98;;;5.30;99.90;;;;;;5430873;26;20073;-72
2024/04/17 05:29:36;;;;;;;2.72;0.65;;;5.30;99.90;;;;;;5424859;26;20381;-71
2024/04/17 05:32:02;;;;;;;2.75;0.82;;;5.30;99.90;;;;;;5426119;26;20004;-71
2024/04/17 05:34:28;;;;;;;3.75;0.40;;;5.40;99.90;;;;;;5416836;26;20007;-72
2024/04/17 05:36:55;;;;;;;4.45;0.90;;;5.40;99.90;;;;;;5432680;26;19999;-72
2024/04/17 05:39:21;;;;;;;2.65;0.63;;;5.50;99.90;;;;;;5421794;26;20058;-72
2024/04/17 05:41:47;;;;;;;3.63;0.52;;;5.60;99.90;;;;;;5431220;26;20062;-72
2024/04/17 05:44:12;;;;;;;2.65;0.60;;;5.70;99.90;;;;;;5414039;26;20008;-72
2024/04/17 05:46:38;;;;;;;4.82;1.35;;;5.70;99.90;;;;;;5418627;26;20431;-72
2024/04/17 05:49:05;;;;;;;5.43;0.77;;;5.80;99.90;;;;;;5418321;26;20007;-71
2024/04/17 05:51:31;;;;;;;5.40;0.65;;;6.00;99.90;;;;;;5422200;26;20061;-72
2024/04/17 05:53:57;;;;;;;4.10;0.73;;;6.10;99.90;;;;;;5420510;26;20019;-72
2024/04/17 05:56:23;;;;;;;3.08;0.50;;;6.20;99.90;;;;;;5421612;26;20013;-71
2024/04/17 05:58:49;;;;;;;6.63;0.60;;;6.20;99.90;;;;;;5421774;26;20019;-71
2024/04/17 06:01:14;;;;;;;6.68;0.77;;;6.30;99.90;;;;;;5415271;26;20022;-72
2024/04/17 06:03:40;;;;;;;2.50;0.57;;;6.40;99.90;;;;;;5416030;26;20318;-71
2024/04/17 06:06:06;;;;;;;4.72;0.60;;;6.50;99.90;;;;;;5416245;26;20116;-71
2024/04/17 06:08:32;;;;;;;2.90;0.30;;;6.50;99.90;;;;;;5422950;26;20007;-71
2024/04/17 06:10:58;;;;;;;3.35;0.93;;;6.50;99.90;;;;;;5416663;26;20014;-72
2024/04/17 06:13:23;;;;;;;6.50;0.75;;;6.50;99.90;;;;;;5426705;26;20932;-72
2024/04/17 06:15:49;;;;;;;5.07;0.60;;;6.60;99.90;;;;;;5411372;26;20096;-72
2024/04/17 06:18:15;;;;;;;3.90;1.08;;;6.50;99.90;;;;;;5424307;26;19999;-71
2024/04/17 06:20:41;;;;;;;2.78;0.35;;;6.60;99.90;;;;;;5417896;26;20008;-71
2024/04/17 06:23:07;;;;;;;2.17;0.40;;;6.70;99.90;;;;;;5430494;26;20365;-72
2024/04/17 06:25:33;;;;;;;3.28;0.40;;;6.70;99.90;;;;;;5420117;26;20008;-71
2024/04/17 06:27:59;;;;;;;1.85;0.22;;;6.70;99.90;;;;;;5426389;26;20093;-71
2024/04/17 06:30:25;;;;;;;3.05;0.40;;;6.80;99.90;;;;;;5420044;26;20077;-71
2024/04/17 06:32:50;;;;;;;1.98;0.30;;;6.80;99.90;;;;;;5425777;26;20015;-71
2024/04/17 06:35:16;;;;;;;3.95;1.73;;;6.80;99.90;;;;;;5422275;26;20098;-71
2024/04/17 06:37:43;;;;;;;3.55;0.30;;;6.90;99.90;;;;;;5420415;26;20004;-71
2024/04/17 06:40:09;;;;;;;3.78;0.40;;;6.90;99.90;;;;;;5425539;26;20073;-71
2024/04/17 06:42:35;;;;;;;3.08;0.45;;;6.90;99.90;;;;;;5416322;26;20365;-71
2024/04/17 06:45:02;;;;;;;6.40;0.93;;;6.90;99.90;;;;;;5427944;26;20011;-71
2024/04/17 06:47:27;;;;;;;2.55;0.30;;;6.90;99.90;;;;;;5425157;26;20008;-71
2024/04/17 06:49:53;;;;;;;3.90;0.40;;;7.00;99.90;;;;;;5424483;26;20026;-71
2024/04/17 06:52:19;;;;;;;2.78;0.55;;;7.00;99.90;;;;;;5427218;26;20351;-71
2024/04/17 06:54:45;;;;;;;3.13;0.40;;;7.00;99.90;;;;;;5427231;26;20498;-71
2024/04/17 06:57:11;;;;;;;3.25;0.30;;;6.90;99.90;;;;;;5413148;26;20019;-72
2024/04/17 06:59:36;;;;;;;3.05;0.40;;;7.00;99.90;;;;;;5435503;26;20022;-71
2024/04/17 07:02:02;;;;;;;5.05;0.40;;;7.00;99.90;;;;;;5422539;26;20015;-71
2024/04/17 07:04:28;;;;;;;5.82;0.40;;;7.00;99.90;;;;;;5423843;26;20084;-71
2024/04/17 07:06:54;;;;;;;3.40;0.50;;;7.00;99.90;;;;;;5418670;26;20014;-71
2024/04/17 07:09:20;;;;;;;3.90;0.60;;;7.00;99.90;;;;;;5418852;26;20006;-71
2024/04/17 07:11:47;;;;;;;2.67;0.60;;;7.10;99.90;;;;;;5418259;26;20065;-71
2024/04/17 07:14:12;;;;;;;3.25;0.70;;;7.10;99.90;;;;;;5423459;26;20015;-71
2024/04/17 07:16:38;;;;;;;5.40;0.52;;;7.00;99.90;;;;;;5426791;26;20014;-71
2024/04/17 07:19:04;;;;;;;5.10;0.45;;;6.90;99.90;;;;;;5427686;26;20004;-71
2024/04/17 07:21:30;;;;;;;6.07;0.80;;;7.00;99.90;;;;;;5428643;26;20008;-70
2024/04/17 07:23:56;;;;;;;7.05;0.77;;;7.00;99.90;;;;;;5423279;26;20091;-71
2024/04/17 07:26:22;;;;;;;4.28;0.75;;;7.00;99.90;;;;;;5428757;26;20003;-71
2024/04/17 07:28:48;;;;;;;4.55;0.50;;;7.00;99.90;;;;;;5424982;26;20015;-71
2024/04/17 07:31:14;;;;;;;4.63;0.70;;;7.00;99.90;;;;;;5425869;26;20503;-70
2024/04/17 07:33:40;;;;;;;2.92;1.00;;;7.00;99.90;;;;;;5424679;26;20007;-70
2024/04/17 07:36:06;;;;;;;6.07;1.15;;;7.00;99.90;;;;;;5429056;26;20004;-70
2024/04/17 07:38:33;;;;;;;5.15;0.90;;;7.10;99.90;;;;;;5419449;26;20018;-70
2024/04/17 07:41:02;;;;;;;5.82;1.05;;;7.20;99.90;;;;;;5425783;26;20359;-70
2024/04/17 07:43:32;;;;;;;3.70;0.75;;;7.50;99.90;;;;;;5421781;26;20018;-70
2024/04/17 07:45:58;;;;;;;7.35;1.20;;;7.70;99.90;;;;;;5433875;26;20018;-69
2024/04/17 07:48:24;;;;;;;5.07;1.27;;;8.10;99.90;;;;;;5430124;26;20007;-70
2024/04/17 07:50:50;;;;;;;6.13;1.05;;;8.30;99.90;;;;;;5429982;26;20015;-70
2024/04/17 07:53:16;;;;;;;4.78;0.93;;;8.60;99.90;;;;;;5427053;26;20018;-70
2024/04/17 07:55:42;;;;;;;4.78;0.98;;;8.90;99.90;;;;;;5426886;26;20007;-69
2024/04/17 07:58:07;;;;;;;5.00;0.57;;;9.10;99.90;;;;;;5416499;26;20008;-69
2024/04/17 08:00:35;;;;;;;7.47;1.25;;;9.30;99.90;;;;;;5435465;26;20105;-69
2024/04/17 08:03:01;;;;;;;5.03;0.77;;;9.20;99.90;;;;;;5406029;26;20007;-69
2024/04/17 08:05:26;;;;;;;3.10;0.50;;;9.30;99.90;;;;;;5418094;26;20004;-68
2024/04/17 08:07:53;;;;;;;3.92;1.00;;;9.60;99.90;;;;;;5423652;26;20014;-70
2024/04/17 08:10:19;;;;;;;7.20;0.77;;;9.80;99.90;;;;;;5419500;26;20440;-69
2024/04/17 08:12:47;;;;;;;7.30;0.70;;;10.10;99.90;;;;;;5430988;26;20014;-69
2024/04/17 08:15:13;;;;;;;7.13;0.85;;;10.10;99.90;;;;;;5432794;26;20014;-69
2024/04/17 08:17:42;;;;;;;5.95;0.70;;;10.10;99.90;;;;;;5433865;26;20004;-69
2024/04/17 08:20:08;;;;;;;5.10;0.75;;;10.10;99.90;;;;;;5435708;26;20008;-70
2024/04/17 08:22:34;;;;;;;6.38;1.08;;;10.10;99.90;;;;;;5438858;26;20004;-69
2024/04/17 08:25:01;;;;;;;7.40;1.02;;;9.80;99.90;;;;;;5432748;26;20031;-69
2024/04/17 08:27:26;;;;;;;6.10;0.70;;;9.60;99.90;;;;;;5438018;26;20024;-69
2024/04/17 08:29:52;;;;;;;8.75;1.02;;;9.40;99.90;;;;;;5431289;26;20359;-68
2024/04/17 08:32:18;;;;;;;6.40;0.93;;;9.40;99.90;;;;;;5431962;26;20011;-69
2024/04/17 08:34:44;;;;;;;7.55;1.65;;;9.50;99.90;;;;;;5436119;26;20007;-69
2024/04/17 08:37:10;;;;;;;7.15;1.00;;;9.50;99.90;;;;;;5437164;26;20076;-69
2024/04/17 08:39:36;;;;;;;6.05;1.17;;;9.80;99.90;;;;;;5420888;26;20005;-69
2024/04/17 08:42:06;;;;;;;8.93;0.90;;;10.40;99.90;;;;;;5424683;26;20395;-69
2024/04/17 08:44:35;;;;;;;8.10;1.05;;;11.20;99.90;;;;;;5436555;26;20018;-68
2024/04/17 08:47:05;;;;;;;9.13;1.10;;;12.00;99.90;;;;;;5414095;26;20913;-69
2024/04/17 08:49:33;;;;;;;7.60;1.52;;;12.50;99.90;;;;;;5437146;26;20003;-69
2024/04/17 08:52:02;;;;;;;8.18;1.20;;;13.10;99.90;;;;;;5429572;26;20487;-69
2024/04/17 08:54:33;;;;;;;5.03;0.77;;;13.90;99.90;;;;;;5442292;26;20011;-69
2024/04/17 08:56:59;;;;;;;8.25;1.13;;;14.50;99.90;;;;;;5423958;26;20014;-69
2024/04/17 08:59:25;;;;;;;6.93;0.88;;;14.90;99.90;;;;;;5434997;26;20384;-69
2024/04/17 09:01:52;;;;;;;4.10;0.85;;;15.10;99.90;;;;;;5427297;26;20007;-69
2024/04/17 09:04:20;;;;;;;5.78;0.90;;;15.20;99.90;;;;;;5426265;26;20009;-69
2024/04/17 09:06:47;;;;;;;4.03;0.80;;;15.30;99.90;;;;;;5425383;26;20018;-69
2024/04/17 09:09:16;;;;;;;5.85;0.90;;;15.40;99.90;;;;;;5429180;26;20013;-69
2024/04/17 09:11:43;;;;;;;6.57;1.17;;;15.50;99.90;;;;;;5428278;26;20035;-69
2024/04/17 09:14:08;;;;;;;5.72;0.93;;;15.20;99.90;;;;;;5428083;26;20084;-69
2024/04/17 09:16:34;;;;;;;7.43;0.98;;;14.70;99.90;;;;;;5421968;26;20776;-69
2024/04/17 09:19:00;;;;;;;5.05;0.95;;;14.40;99.90;;;;;;5426324;26;20499;-70
2024/04/17 09:21:26;;;;;;;5.65;0.60;;;14.60;99.90;;;;;;5426747;26;20018;-69
2024/04/17 09:23:51;;;;;;;5.07;0.82;;;14.80;99.90;;;;;;5426028;26;20108;-70
2024/04/17 09:26:18;;;;;;;4.57;0.70;;;14.60;99.90;;;;;;5434893;26;20076;-70
2024/04/17 09:28:44;;;;;;;4.63;0.75;;;14.60;99.90;;;;;;5423881;26;20332;-69
2024/04/17 09:31:11;;;;;;;6.57;0.80;;;14.60;99.90;;;;;;5435533;26;20007;-69
2024/04/17 09:33:47;;;;;;;5.55;0.85;;;14.90;99.90;;;;;;5417774;26;20011;-69
2024/04/17 09:36:13;;;;;;;4.30;0.68;;;15.00;99.90;;;;;;5424049;26;20007;-70
2024/04/17 09:38:41;;;;;;;3.75;0.70;;;15.10;99.90;;;;;;5427577;26;20081;-67
2024/04/17 09:41:09;;;;;;;4.22;0.82;;;15.40;99.90;;;;;;5437485;26;20006;-67
2024/04/17 09:43:42;;;;;;;6.70;0.85;;;15.70;99.90;;;;;;5421909;26;20007;-67
2024/04/17 09:46:08;;;;;;;4.75;0.82;;;15.80;99.90;;;;;;5430296;26;20011;-67
2024/04/17 09:48:37;;;;;;;3.22;0.68;;;15.90;99.90;;;;;;5427230;26;20076;-67
2024/04/17 09:51:04;;;;;;;4.57;0.85;;;16.30;99.90;;;;;;5425435;26;20054;-67
2024/04/17 09:53:32;;;;;;;3.53;0.60;;;16.40;99.90;;;;;;5417587;26;20006;-67
2024/04/17 09:55:59;;;;;;;3.58;0.50;;;16.40;99.90;;;;;;5421665;26;20027;-68
2024/04/17 09:58:32;;;;;;;3.35;0.50;;;15.70;99.90;;;;;;5430088;26;20500;-67
2024/04/17 10:01:07;;;;;;;4.43;0.55;;;14.90;99.90;;;;;;5429560;26;20003;-67
2024/04/17 10:03:34;;;;;;;6.93;0.90;;;14.20;99.90;;;;;;5420843;26;20470;-68
2024/04/17 10:06:01;;;;;;;6.80;0.90;;;13.70;99.90;;;;;;5425271;26;20003;-71
2024/04/17 10:08:31;;;;;;;5.13;0.70;;;13.10;99.90;;;;;;5427441;26;20532;-71
2024/04/17 10:10:58;;;;;;;5.45;1.00;;;12.60;99.90;;;;;;5421837;26;20008;-71
2024/04/17 10:13:24;;;;;;;7.05;0.85;;;12.20;99.90;;;;;;5425065;26;20019;-71
2024/04/17 10:15:51;;;;;;;6.88;0.82;;;11.90;99.90;;;;;;5425747;26;20019;-71
2024/04/17 10:18:17;;;;;;;3.70;0.50;;;11.60;99.90;;;;;;5415845;26;20383;-70
2024/04/17 10:20:43;;;;;;;4.55;0.70;;;11.40;99.90;;;;;;5426142;26;20004;-71
2024/04/17 10:23:11;;;;;;;5.20;0.70;;;11.20;99.90;;;;;;5424823;26;20008;-71
2024/04/17 10:25:54;;;;;;;5.93;0.70;;;11.00;99.90;;;;;;5425594;26;20018;-71
2024/04/17 10:28:21;;;;;;;2.63;0.47;;;10.90;99.90;;;;;;5412936;26;20008;-71
2024/04/17 10:30:51;;;;;;;4.40;0.50;;;10.80;99.90;;;;;;5426408;26;20007;-70
2024/04/17 10:33:36;;;;;;;3.42;0.30;;;10.70;99.90;;;;;;5425449;26;20094;-72
2024/04/17 10:36:03;;;;;;;;;;;10.60;99.90;;;;;;5424537;26;20459;-72
2024/04/17 10:38:30;;;;;;;3.45;0.50;;;10.40;99.90;;;;;;5414696;26;19924;-71
2024/04/17 10:40:58;;;;;;;3.50;0.60;;;10.30;99.90;;;;;;5427524;26;20071;-72
2024/04/17 10:43:25;;;;;;;3.58;0.52;;;10.20;99.90;;;;;;5420237;26;20022;-71
2024/04/17 10:46:08;;;;;;;3.17;0.57;;;10.20;99.90;;;;;;5426644;26;20058;-72
2024/04/17 10:48:50;;;;;;;2.60;0.40;;;10.30;99.90;;;;;;5424510;26;20020;-71
2024/04/17 10:51:17;;;;;;;4.38;0.50;;;10.10;99.90;;;;;;5429242;26;20019;-71
2024/04/17 10:53:47;;;;;;;2.88;0.55;;;10.00;99.90;;;;;;5432036;26;20471;-71
2024/04/17 10:56:16;;;;;;;5.95;0.50;;;9.70;99.90;;;;;;5428401;26;20076;-71
2024/04/17 10:58:42;;;;;;;3.33;0.90;;;9.60;99.90;;;;;;5432235;26;20003;-71
2024/04/17 11:01:11;;;;;;;2.83;0.40;;;9.50;99.90;;;;;;5424292;26;20003;-71
2024/04/17 11:03:38;;;;;;;4.65;0.68;;;9.50;99.90;;;;;;5429904;26;20390;-71
2024/04/17 11:06:08;;;;;;;3.92;0.80;;;9.60;99.90;;;;;;5424495;26;20018;-71
2024/04/17 11:08:39;;;;;;;4.68;0.57;;;9.80;99.90;;;;;;5445006;26;20014;-71
2024/04/17 11:11:05;;;;;;;1.73;0.20;;;10.50;99.90;;;;;;5422978;26;20014;-71
2024/04/17 11:13:31;;;;;;;4.85;0.70;;;11.30;99.90;;;;;;5425780;26;20042;-71
2024/04/17 11:15:56;;;;;;;2.30;0.50;;;11.90;99.90;;;;;;5424149;26;20427;-72
2024/04/17 11:18:23;;;;;;;2.28;0.40;;;12.20;99.90;;;;;;5422814;26;20003;-72
2024/04/17 11:20:49;;;;;;;3.10;0.50;;;12.60;99.90;;;;;;5399575;26;20485;-72
2024/04/17 11:23:15;;;;;;;2.33;0.35;;;12.90;99.90;;;;;;5435517;26;20006;-71
2024/04/17 11:25:41;;;;;;;4.35;0.63;;;12.80;99.90;;;;;;5424378;26;20008;-71
2024/04/17 11:28:12;;;;;;;3.03;0.43;;;13.00;99.90;;;;;;5430573;26;20010;-71
2024/04/17 11:30:46;;;;;;;3.80;0.52;;;13.30;99.90;;;;;;5426112;26;20022;-72
2024/04/17 11:33:12;;;;;;;3.10;0.63;;;13.60;99.90;;;;;;5426011;26;20462;-71
2024/04/17 11:35:37;;;;;;;3.25;0.60;;;13.80;99.90;;;;;;5421942;26;20028;-72
2024/04/17 11:38:04;;;;;;;4.28;0.68;;;14.00;99.90;;;;;;5429473;26;20004;-71
2024/04/17 11:40:31;;;;;;;5.20;0.60;;;14.10;99.90;;;;;;5430335;26;20049;-72
2024/04/17 11:42:57;;;;;;;5.07;0.73;;;13.90;99.90;;;;;;5431256;26;20007;-72
2024/04/17 11:45:23;;;;;;;2.30;0.75;;;13.70;99.90;;;;;;5421023;26;20084;-72
2024/04/17 11:47:49;;;;;;;4.45;0.43;;;13.60;99.90;;;;;;5427951;26;20423;-71
2024/04/17 11:50:16;;;;;;;1.75;0.30;;;13.80;99.90;;;;;;5433155;26;20008;-71
2024/04/17 11:52:42;;;;;;;3.20;0.50;;;14.10;99.90;;;;;;5421553;26;20043;-71
2024/04/17 11:55:07;;;;;;;3.03;0.57;;;14.20;99.90;;;;;;5436830;26;20077;-71
2024/04/17 11:57:34;;;;;;;4.55;0.98;;;14.20;99.90;;;;;;5431561;26;20018;-70
2024/04/17 11:59:59;;;;;;;5.35;0.70;;;14.30;99.90;;;;;;5429844;26;20014;-71
2024/04/17 12:02:25;;;;;;;4.10;0.55;;;14.20;99.90;;;;;;5433285;26;20025;-71
2024/04/17 12:04:51;;;;;;;5.60;0.80;;;14.10;99.90;;;;;;5443076;26;20021;-71
2024/04/17 12:07:17;;;;;;;4.80;0.85;;;13.90;99.90;;;;;;5434147;26;20052;-71
2024/04/17 12:09:48;;;;;;;3.63;0.60;;;14.20;99.90;;;;;;5432433;26;20475;-72
2024/04/17 12:12:15;;;;;;;4.43;0.32;;;14.80;99.90;;;;;;5423843;26;20043;-71
2024/04/17 12:14:41;;;;;;;3.05;0.47;;;14.70;99.90;;;;;;5420374;26;20018;-71
2024/04/17 12:17:08;;;;;;;3.97;0.40;;;14.40;98.50;;;;;;5414561;26;20007;-70
2024/04/17 12:19:34;;;;;;;4.53;0.60;;;14.70;99.90;;;;;;5428009;26;20017;-71
2024/04/17 12:22:00;;;;;;;4.43;0.52;;;15.00;99.90;;;;;;5424423;26;20420;-72
2024/04/17 12:27:10;;;;;;;6.47;1.23;;;15.00;97.80;;;;;;5420921;26;20018;-72
2024/04/17 12:29:36;;;;;;;4.28;0.45;;;15.30;99.90;;;;;;5430782;26;20373;-71
2024/04/17 12:32:02;;;;;;;3.38;0.68;;;15.60;99.10;;;;;;5424899;26;20007;-71
2024/04/17 12:34:28;;;;;;;5.60;0.70;;;15.60;95.30;;;;;;5427998;26;20014;-71
2024/04/17 12:36:55;;;;;;;5.93;0.65;;;15.70;94.10;;;;;;5424329;26;20331;-71
2024/04/17 12:39:21;;;;;;;4.63;0.52;;;15.80;93.60;;;;;;5423318;26;20060;-71
2024/04/17 12:41:47;;;;;;;3.40;0.60;;;16.10;94.70;;;;;;5427375;26;20029;-71
2024/04/17 12:44:13;;;;;;;2.95;0.60;;;16.50;93.50;;;;;;5422180;26;20007;-71
2024/04/17 12:46:39;;;;;;;2.90;0.40;;;16.70;91.50;;;;;;5422671;26;20003;-71
2024/04/17 12:49:05;;;;;;;2.85;0.55;;;17.00;92.00;;;;;;5417860;26;20010;-71
2024/04/17 12:51:31;;;;;;;4.03;0.52;;;17.40;90.40;;;;;;5420609;26;20012;-71
2024/04/17 12:53:57;;;;;;;3.80;0.50;;;17.30;83.70;;;;;;5412767;26;20005;-71
2024/04/17 12:56:23;;;;;;;5.18;0.40;;;16.50;82.10;;;;;;5427045;26;20011;-71
2024/04/17 12:58:49;;;;;;;4.20;0.43;;;15.70;82.70;;;;;;5407901;26;20091;-71
2024/04/17 13:01:15;;;;;;;3.20;0.40;;;15.40;84.60;;;;;;5425466;26;20018;-71
2024/04/17 13:03:41;;;;;;;1.80;0.30;;;15.10;87.10;;;;;;5417108;26;20442;-71
2024/04/17 13:06:06;;;;;;;3.28;0.35;;;14.60;83.40;;;;;;5419642;26;20089;-71
2024/04/17 13:08:32;;;;;;;3.35;0.57;;;14.00;80.10;;;;;;5421212;26;20010;-71
2024/04/17 13:11:00;;;;;;;2.30;0.20;;;13.70;83.70;;;;;;5416431;26;20503;-70
2024/04/17 13:13:26;;;;;;;3.05;0.40;;;13.40;83.30;;;;;;5416977;26;20002;-71
2024/04/17 13:15:59;;;;;;;4.78;0.70;;;13.20;82.30;;;;;;5410934;26;20342;-71
2024/04/17 13:18:26;;;;;;;2.35;0.30;;;13.00;82.80;;;;;;5420709;26;20170;-71
2024/04/17 13:20:56;;;;;;;4.10;0.50;;;12.60;85.90;;;;;;5426357;26;20007;-71